createdAt,value
2018-12-02T00:01:58.280Z,1.90
2018-12-02T00:04:27.820Z,2.00
2018-12-02T00:06:57.268Z,2.50
2018-12-02T00:09:27.385Z,2.70
2018-12-02T00:11:57.534Z,2.80
2018-12-02T00:14:27.135Z,2.80
2018-12-02T00:16:56.541Z,2.60
2018-12-02T00:19:26.050Z,2.40
2018-12-02T00:21:55.434Z,2.10
2018-12-02T00:24:24.820Z,1.80
2018-12-02T00:26:54.363Z,1.60
2018-12-02T00:29:23.837Z,1.40
2018-12-02T00:31:53.401Z,1.40
2018-12-02T00:34:22.800Z,1.20
2018-12-02T00:36:52.272Z,1.20
2018-12-02T00:39:21.645Z,1.10
2018-12-02T00:41:51.117Z,1.10
2018-12-02T00:44:20.501Z,1.10
2018-12-02T00:46:50.000Z,1.00
2018-12-02T00:49:19.404Z,1.10
2018-12-02T00:51:48.889Z,1.20
2018-12-02T00:54:18.283Z,1.20
2018-12-02T00:56:47.883Z,1.20
2018-12-02T00:59:17.270Z,1.10
2018-12-02T01:05:03.825Z,1.20
2018-12-02T01:07:34.608Z,1.10
2018-12-02T01:10:04.187Z,1.10
2018-12-02T01:12:33.933Z,1.10
2018-12-02T01:15:03.580Z,1.20
2018-12-02T01:17:33.085Z,1.20
2018-12-02T01:20:02.555Z,1.20
2018-12-02T01:22:31.885Z,1.20
2018-12-02T01:25:01.232Z,1.20
2018-12-02T01:27:30.744Z,1.30
2018-12-02T01:30:00.177Z,1.30
2018-12-02T01:32:29.755Z,1.20
2018-12-02T01:34:59.770Z,1.20
2018-12-02T01:37:29.275Z,1.30
2018-12-02T01:39:58.979Z,1.30
2018-12-02T01:42:28.450Z,1.20
2018-12-02T01:44:57.835Z,1.00
2018-12-02T01:47:27.294Z,1.10
2018-12-02T01:49:56.695Z,1.10
2018-12-02T01:52:26.037Z,1.10
2018-12-02T01:54:55.404Z,1.00
2018-12-02T01:57:24.723Z,1.00
2018-12-02T01:59:54.144Z,0.90
2018-12-02T02:02:23.510Z,0.90
2018-12-02T02:04:52.895Z,0.80
2018-12-02T02:07:22.238Z,0.80
2018-12-02T02:09:51.567Z,0.80
2018-12-02T02:12:21.065Z,0.80
2018-12-02T02:14:50.680Z,0.80
2018-12-02T02:17:20.114Z,0.80
2018-12-02T02:19:49.450Z,0.70
2018-12-02T02:22:18.886Z,0.70
2018-12-02T02:24:48.245Z,0.70
2018-12-02T02:27:17.596Z,0.60
2018-12-02T02:29:46.979Z,0.50
2018-12-02T02:32:16.492Z,0.50
2018-12-02T02:34:45.869Z,0.50
2018-12-02T02:37:15.272Z,0.50
2018-12-02T02:39:44.697Z,0.40
2018-12-02T02:42:14.054Z,0.40
2018-12-02T02:44:43.439Z,0.50
2018-12-02T02:47:12.903Z,0.40
2018-12-02T02:49:42.353Z,0.40
2018-12-02T02:52:11.827Z,0.30
2018-12-02T02:54:42.188Z,0.40
2018-12-02T02:57:11.650Z,0.40
2018-12-02T02:59:41.027Z,0.40
2018-12-02T03:02:10.376Z,0.30
2018-12-02T03:04:39.708Z,0.30
2018-12-02T03:07:09.068Z,0.40
2018-12-02T03:09:38.447Z,0.30
2018-12-02T03:12:07.845Z,0.10
2018-12-02T03:14:37.239Z,0.20
2018-12-02T03:17:06.994Z,0.20
2018-12-02T03:19:36.487Z,0.20
2018-12-02T03:22:06.367Z,0.20
2018-12-02T03:24:35.812Z,0.20
2018-12-02T03:27:05.419Z,0.10
2018-12-02T03:29:34.869Z,-0.10
2018-12-02T03:32:04.432Z,-0.10
2018-12-02T03:34:33.882Z,-0.20
2018-12-02T03:37:03.348Z,-0.20
2018-12-02T03:39:32.879Z,-0.20
2018-12-02T03:42:04.310Z,-0.20
2018-12-02T03:44:34.474Z,-0.30
2018-12-02T03:47:03.944Z,-0.30
2018-12-02T03:49:33.354Z,-0.30
2018-12-02T03:52:02.861Z,-0.20
2018-12-02T03:54:32.927Z,-0.30
2018-12-02T03:57:02.362Z,-0.30
2018-12-02T03:59:31.874Z,-0.30
2018-12-02T04:02:01.381Z,-0.30
2018-12-02T04:04:30.886Z,-0.30
2018-12-02T04:07:00.432Z,-0.40
2018-12-02T04:09:29.870Z,-0.40
2018-12-02T04:11:59.307Z,-0.40
2018-12-02T04:14:28.741Z,-0.40
2018-12-02T04:16:58.198Z,-0.40
2018-12-02T04:19:27.729Z,-0.40
2018-12-02T04:21:57.205Z,-0.50
2018-12-02T04:24:26.650Z,-0.40
2018-12-02T04:26:56.028Z,-0.40
2018-12-02T04:29:25.484Z,-0.50
2018-12-02T04:31:54.973Z,-0.50
2018-12-02T04:34:27.249Z,-0.60
2018-12-02T04:36:56.908Z,-0.50
2018-12-02T04:39:26.431Z,-0.40
2018-12-02T04:41:59.553Z,-0.30
2018-12-02T04:44:32.946Z,-0.40
2018-12-02T04:47:02.895Z,-0.30
2018-12-02T04:49:32.263Z,-0.30
2018-12-02T04:52:01.706Z,-0.30
2018-12-02T04:54:31.183Z,-0.40
2018-12-02T04:57:00.676Z,-0.50
2018-12-02T04:59:30.150Z,-0.50
2018-12-02T05:01:59.665Z,-0.50
2018-12-02T05:04:29.123Z,-0.50
2018-12-02T05:06:58.545Z,-0.50
2018-12-02T05:09:27.885Z,-0.60
2018-12-02T05:11:57.293Z,-0.60
2018-12-02T05:14:26.763Z,-0.70
2018-12-02T05:16:56.205Z,-0.80
2018-12-02T05:19:25.725Z,-0.80
2018-12-02T05:21:55.126Z,-0.80
2018-12-02T05:24:24.514Z,-0.90
2018-12-02T05:26:54.005Z,-0.90
2018-12-02T05:29:23.434Z,-0.70
2018-12-02T05:31:52.885Z,-0.60
2018-12-02T05:34:23.176Z,-0.60
2018-12-02T05:36:52.572Z,-0.60
2018-12-02T05:39:21.993Z,-0.60
2018-12-02T05:41:56.883Z,-0.70
2018-12-02T05:44:26.359Z,-0.80
2018-12-02T05:46:55.875Z,-0.90
2018-12-02T05:49:25.344Z,-0.90
2018-12-02T05:51:54.809Z,-0.80
2018-12-02T05:54:24.303Z,-0.70
2018-12-02T05:56:53.742Z,-0.70
2018-12-02T05:59:23.202Z,-0.80
2018-12-02T06:01:52.758Z,-0.80
2018-12-02T06:04:22.208Z,-0.80
2018-12-02T06:06:51.678Z,-0.80
2018-12-02T06:09:21.133Z,-0.90
2018-12-02T06:11:50.613Z,-0.90
2018-12-02T06:14:20.040Z,-0.90
2018-12-02T06:16:49.467Z,-0.90
2018-12-02T06:19:18.885Z,-1.00
2018-12-02T06:21:48.315Z,-1.00
2018-12-02T06:24:18.685Z,-0.90
2018-12-02T06:26:48.624Z,-0.90
2018-12-02T06:29:18.102Z,-0.80
2018-12-02T06:31:47.594Z,-0.90
2018-12-02T06:34:17.043Z,-0.90
2018-12-02T06:36:46.605Z,-1.00
2018-12-02T06:39:16.179Z,-1.00
2018-12-02T06:41:45.668Z,-1.10
2018-12-02T06:44:15.155Z,-1.10
2018-12-02T06:46:44.713Z,-1.00
2018-12-02T06:49:14.200Z,-1.00
2018-12-02T06:51:43.676Z,-0.90
2018-12-02T06:54:13.177Z,-0.90
2018-12-02T06:56:42.711Z,-0.80
2018-12-02T07:01:24.294Z,-0.70
2018-12-02T07:04:07.270Z,-0.70
2018-12-02T07:06:36.772Z,-0.50
2018-12-02T07:09:08.314Z,-0.30
2018-12-02T07:11:37.898Z,-0.20
2018-12-02T07:14:07.363Z,-0.10
2018-12-02T07:16:36.832Z,-0.20
2018-12-02T07:19:09.522Z,-0.30
2018-12-02T07:21:39.201Z,-0.40
2018-12-02T07:24:10.219Z,-0.40
2018-12-02T07:26:39.746Z,-0.30
2018-12-02T07:29:09.227Z,-0.20
2018-12-02T07:31:38.718Z,-0.10
2018-12-02T07:34:25.975Z,0.00
2018-12-02T07:37:06.148Z,0.00
2018-12-02T07:40:56.465Z,0.10
2018-12-02T07:43:25.962Z,0.30
2018-12-02T07:45:55.468Z,0.50
2018-12-02T07:48:25.024Z,0.60
2018-12-02T07:50:54.708Z,0.90
2018-12-02T07:53:24.217Z,1.20
2018-12-02T07:55:53.655Z,1.40
2018-12-02T07:58:23.053Z,1.50
2018-12-02T08:00:52.457Z,1.70
2018-12-02T08:03:21.853Z,1.80
2018-12-02T08:05:51.273Z,2.10
2018-12-02T08:08:20.707Z,2.50
2018-12-02T08:10:50.112Z,2.60
2018-12-02T08:13:19.585Z,2.70
2018-12-02T08:22:04.177Z,3.50
2018-12-02T08:24:34.420Z,3.70
2018-12-02T08:27:04.589Z,3.70
2018-12-02T08:29:34.624Z,3.60
2018-12-02T08:32:04.440Z,3.60
2018-12-02T08:34:34.032Z,3.50
2018-12-02T08:37:03.530Z,3.60
2018-12-02T08:39:32.918Z,3.80
2018-12-02T08:42:02.354Z,4.10
2018-12-02T08:44:32.407Z,4.30
2018-12-02T08:47:01.844Z,4.40
2018-12-02T08:49:31.244Z,4.60
2018-12-02T08:52:00.612Z,4.80
2018-12-02T08:54:29.942Z,4.90
2018-12-02T08:56:59.283Z,5.10
2018-12-02T08:59:28.617Z,5.20
2018-12-02T09:01:57.918Z,5.50
2018-12-02T09:04:27.277Z,5.90
2018-12-02T09:06:56.689Z,6.10
2018-12-02T09:09:26.349Z,6.20
2018-12-02T09:11:55.892Z,6.50
2018-12-02T09:14:25.367Z,6.90
2018-12-02T09:16:54.950Z,7.00
2018-12-02T09:19:24.380Z,6.70
2018-12-02T09:21:54.427Z,6.10
2018-12-02T09:24:23.885Z,5.70
2018-12-02T09:26:53.274Z,5.40
2018-12-02T09:29:22.691Z,5.30
2018-12-02T09:31:52.117Z,5.50
2018-12-02T09:34:21.523Z,5.50
2018-12-02T09:36:50.975Z,5.60
2018-12-02T09:39:20.365Z,5.60
2018-12-02T09:41:49.722Z,5.40
2018-12-02T09:44:19.122Z,5.60
2018-12-02T09:46:48.504Z,5.90
2018-12-02T09:49:17.947Z,6.00
2018-12-02T09:51:47.419Z,6.00
2018-12-02T09:54:16.792Z,6.20
2018-12-02T09:56:46.214Z,6.50
2018-12-02T09:59:15.624Z,6.60
2018-12-02T10:01:45.090Z,6.60
2018-12-02T10:04:14.519Z,6.40
2018-12-02T10:06:43.908Z,6.30
2018-12-02T10:09:13.357Z,6.30
2018-12-02T10:11:43.468Z,6.40
2018-12-02T10:14:12.915Z,6.70
2018-12-02T10:19:50.270Z,7.10
2018-12-02T10:22:19.790Z,7.30
2018-12-02T10:24:49.432Z,7.40
2018-12-02T10:27:19.365Z,7.60
2018-12-02T10:29:48.785Z,7.80
2018-12-02T10:32:18.208Z,7.90
2018-12-02T10:34:47.619Z,8.00
2018-12-02T10:37:17.110Z,8.20
2018-12-02T10:39:46.577Z,8.20
2018-12-02T10:42:16.092Z,8.20
2018-12-02T10:44:45.575Z,8.30
2018-12-02T10:47:15.010Z,8.70
2018-12-02T10:49:44.462Z,8.80
2018-12-02T10:52:13.919Z,8.90
2018-12-02T10:54:43.402Z,8.90
2018-12-02T10:57:13.800Z,9.00
2018-12-02T10:59:43.320Z,9.00
2018-12-02T11:02:15.786Z,9.10
2018-12-02T11:04:45.392Z,9.20
2018-12-02T11:07:14.886Z,9.10
2018-12-02T11:09:44.575Z,9.00
2018-12-02T11:12:14.157Z,9.00
2018-12-02T11:14:43.833Z,8.80
2018-12-02T11:17:13.322Z,8.70
2018-12-02T11:19:42.762Z,8.60
2018-12-02T11:22:12.182Z,8.60
2018-12-02T11:24:41.648Z,8.60
2018-12-02T11:27:11.121Z,8.50
2018-12-02T11:29:40.680Z,8.50
2018-12-02T11:32:10.149Z,8.40
2018-12-02T11:34:39.632Z,8.40
2018-12-02T11:37:09.034Z,8.30
2018-12-02T11:39:38.562Z,8.40
2018-12-02T11:42:07.980Z,8.50
2018-12-02T11:44:37.525Z,8.60
2018-12-02T11:47:07.058Z,8.60
2018-12-02T11:49:36.580Z,8.60
2018-12-02T11:52:05.995Z,8.50
2018-12-02T11:54:35.466Z,8.60
2018-12-02T11:57:05.010Z,8.60
2018-12-02T11:59:34.523Z,8.60
2018-12-02T12:02:07.621Z,8.70
2018-12-02T12:04:33.610Z,8.70
2018-12-02T12:07:03.089Z,8.70
2018-12-02T12:09:33.270Z,8.60
2018-12-02T12:12:02.830Z,8.50
2018-12-02T12:14:32.290Z,8.50
2018-12-02T12:17:01.841Z,8.50
2018-12-02T12:19:31.488Z,8.50
2018-12-02T12:22:00.980Z,8.50
2018-12-02T12:24:30.418Z,8.50
2018-12-02T12:26:59.968Z,8.40
2018-12-02T12:29:29.529Z,8.40
2018-12-02T12:31:59.020Z,8.40
2018-12-02T12:34:28.430Z,8.40
2018-12-02T12:36:58.170Z,8.50
2018-12-02T12:39:27.661Z,8.50
2018-12-02T12:41:57.277Z,8.50
2018-12-02T12:44:26.750Z,8.50
2018-12-02T12:46:56.213Z,8.50
2018-12-02T12:49:25.613Z,8.50
2018-12-02T12:51:55.098Z,8.50
2018-12-02T12:54:24.587Z,8.50
2018-12-02T12:56:54.036Z,8.50
2018-12-02T12:59:23.489Z,8.50
2018-12-02T13:01:53.197Z,8.50
2018-12-02T13:04:22.658Z,8.50
2018-12-02T13:06:52.157Z,8.70
2018-12-02T13:09:21.613Z,8.80
2018-12-02T13:11:51.684Z,8.90
2018-12-02T13:14:21.235Z,9.30
2018-12-02T13:16:50.632Z,9.90
2018-12-02T13:19:20.135Z,10.40
2018-12-02T13:21:50.203Z,10.70
2018-12-02T13:24:19.877Z,10.90
2018-12-02T13:26:49.333Z,10.70
2018-12-02T13:29:18.863Z,10.40
2018-12-02T13:31:48.320Z,10.10
2018-12-02T13:34:17.791Z,10.00
2018-12-02T13:36:47.268Z,9.90
2018-12-02T13:39:16.785Z,9.80
2018-12-02T13:41:46.167Z,9.70
2018-12-02T13:44:15.622Z,9.60
2018-12-02T13:46:45.145Z,9.50
2018-12-02T13:49:14.742Z,9.40
2018-12-02T13:51:44.254Z,9.40
2018-12-02T13:54:19.305Z,9.40
2018-12-02T13:56:48.768Z,9.40
2018-12-02T13:59:18.347Z,9.30
2018-12-02T14:01:47.737Z,9.40
2018-12-02T14:04:18.223Z,9.50
2018-12-02T14:06:47.724Z,9.60
2018-12-02T14:09:17.135Z,9.70
2018-12-02T14:11:46.679Z,9.60
2018-12-02T14:14:16.145Z,9.50
2018-12-02T14:17:07.898Z,9.50
2018-12-02T14:19:39.509Z,9.50
2018-12-02T14:22:09.017Z,9.40
2018-12-02T14:24:38.543Z,9.40
2018-12-02T14:27:09.767Z,9.50
2018-12-02T14:29:45.327Z,9.50
2018-12-02T14:32:17.041Z,9.60
2018-12-02T14:34:46.474Z,9.60
2018-12-02T14:37:15.998Z,9.60
2018-12-02T14:39:45.527Z,9.60
2018-12-02T14:42:15.243Z,9.60
2018-12-02T14:44:44.623Z,9.50
2018-12-02T14:47:14.175Z,9.50
2018-12-02T14:49:43.655Z,9.60
2018-12-02T14:52:13.150Z,9.60
2018-12-02T14:54:44.113Z,9.60
2018-12-02T14:57:13.577Z,9.50
2018-12-02T14:59:43.034Z,9.40
2018-12-02T15:02:12.618Z,9.30
2018-12-02T15:04:42.130Z,9.20
2018-12-02T15:07:11.598Z,9.10
2018-12-02T15:09:41.146Z,9.00
2018-12-02T15:12:10.600Z,9.00
2018-12-02T15:14:40.040Z,8.90
2018-12-02T15:17:09.573Z,8.80
2018-12-02T15:19:39.086Z,8.80
2018-12-02T15:22:08.939Z,9.10
2018-12-02T15:24:39.053Z,9.30
2018-12-02T15:27:08.556Z,9.10
2018-12-02T15:29:38.305Z,9.00
2018-12-02T15:32:07.433Z,8.80
2018-12-02T15:34:36.990Z,8.70
2018-12-02T15:37:07.190Z,8.70
2018-12-02T15:39:36.701Z,8.80
2018-12-02T15:42:06.926Z,8.80
2018-12-02T15:44:36.694Z,8.70
2018-12-02T15:47:06.306Z,8.60
2018-12-02T15:49:35.828Z,8.40
2018-12-02T15:52:06.321Z,8.30
2018-12-02T15:54:35.984Z,8.20
2018-12-02T15:57:05.604Z,8.20
2018-12-02T15:59:35.024Z,8.10
2018-12-02T16:02:04.671Z,8.00
2018-12-02T16:04:34.193Z,7.90
2018-12-02T16:07:04.254Z,7.90
2018-12-02T16:09:33.819Z,7.80
2018-12-02T16:12:03.336Z,7.70
2018-12-02T16:14:32.935Z,7.70
2018-12-02T16:17:03.086Z,7.60
2018-12-02T16:19:32.642Z,7.60
2018-12-02T16:22:02.286Z,7.50
2018-12-02T16:24:31.825Z,7.60
2018-12-02T16:27:01.275Z,7.60
2018-12-02T16:29:30.764Z,7.60
2018-12-02T16:32:00.364Z,7.50
2018-12-02T16:34:30.537Z,7.60
2018-12-02T16:36:59.990Z,7.50
2018-12-02T16:39:29.610Z,7.50
2018-12-02T16:42:00.219Z,7.50
2018-12-02T16:44:29.904Z,7.40
2018-12-02T16:46:59.632Z,7.30
2018-12-02T16:49:29.141Z,7.20
2018-12-02T16:51:58.708Z,7.20
2018-12-02T16:54:28.249Z,7.20
2018-12-02T16:56:58.212Z,7.20
2018-12-02T16:59:33.652Z,7.20
2018-12-02T17:02:07.243Z,7.20
2018-12-02T17:04:37.883Z,7.30
2018-12-02T17:07:07.546Z,7.40
2018-12-02T17:09:37.159Z,7.40
2018-12-02T17:12:07.000Z,7.40
2018-12-02T17:14:38.758Z,7.30
2018-12-02T17:17:07.350Z,7.40
2018-12-02T17:19:38.297Z,7.40
2018-12-02T17:22:08.108Z,7.40
2018-12-02T17:24:37.787Z,7.40
2018-12-02T17:27:07.587Z,7.40
2018-12-02T17:29:41.451Z,7.30
2018-12-02T17:32:11.619Z,7.20
2018-12-02T17:34:41.227Z,7.30
2018-12-02T17:37:11.570Z,7.20
2018-12-02T17:39:46.546Z,7.20
2018-12-02T17:42:16.124Z,7.20
2018-12-02T17:44:46.493Z,7.20
2018-12-02T17:47:16.717Z,7.30
2018-12-02T17:49:46.320Z,7.30
2018-12-02T17:52:15.834Z,7.40
2018-12-02T17:54:45.287Z,7.40
2018-12-02T17:57:15.357Z,7.30
2018-12-02T17:59:44.821Z,7.30
2018-12-02T18:02:15.478Z,7.30
2018-12-02T18:04:43.985Z,7.30
2018-12-02T18:07:13.457Z,7.30
2018-12-02T18:09:42.869Z,7.30
2018-12-02T18:12:13.041Z,7.20
2018-12-02T18:14:42.520Z,7.30
2018-12-02T18:17:12.001Z,7.30
2018-12-02T18:19:41.493Z,7.30
2018-12-02T18:22:11.062Z,7.30
2018-12-02T18:24:40.699Z,7.30
2018-12-02T18:27:10.168Z,7.30
2018-12-02T18:29:39.557Z,7.30
2018-12-02T18:32:09.064Z,7.30
2018-12-02T18:34:38.567Z,7.30
2018-12-02T18:37:10.641Z,7.30
2018-12-02T18:39:40.063Z,7.40
2018-12-02T18:42:10.021Z,7.40
2018-12-02T18:44:39.456Z,7.50
2018-12-02T18:47:08.954Z,7.50
2018-12-02T18:49:38.444Z,7.50
2018-12-02T18:52:07.981Z,7.50
2018-12-02T18:54:37.425Z,7.50
2018-12-02T18:57:07.285Z,7.60
2018-12-02T18:59:36.770Z,7.60
2018-12-02T19:02:07.087Z,7.60
2018-12-02T19:04:36.534Z,7.70
2018-12-02T19:07:06.045Z,7.60
2018-12-02T19:09:35.673Z,7.60
2018-12-02T19:12:05.639Z,7.60
2018-12-02T19:14:35.106Z,7.60
2018-12-02T19:17:04.591Z,7.60
2018-12-02T19:19:34.914Z,7.60
2018-12-02T19:22:05.286Z,7.60
2018-12-02T19:24:35.386Z,7.60
2018-12-02T19:27:05.454Z,7.70
2018-12-02T19:29:35.779Z,7.70
2018-12-02T19:32:06.284Z,7.90
2018-12-02T19:34:35.938Z,8.00
2018-12-02T19:37:08.922Z,8.10
2018-12-02T19:39:39.448Z,8.10
2018-12-02T19:42:09.206Z,8.10
2018-12-02T19:44:38.704Z,8.10
2018-12-02T19:47:08.398Z,8.10
2018-12-02T19:49:40.244Z,8.20
2018-12-02T19:52:10.492Z,8.20
2018-12-02T19:54:41.188Z,8.10
2018-12-02T19:57:10.746Z,8.20
2018-12-02T19:59:40.861Z,8.10
2018-12-02T20:02:11.343Z,8.10
2018-12-02T20:04:41.480Z,8.10
2018-12-02T20:07:11.092Z,8.20
2018-12-02T20:09:41.538Z,8.20
2018-12-02T20:12:12.322Z,8.20
2018-12-02T20:14:41.214Z,8.30
2018-12-02T20:17:10.902Z,8.30
2018-12-02T20:19:47.573Z,8.20
2018-12-02T20:22:18.514Z,8.10
2018-12-02T20:24:49.744Z,8.00
2018-12-02T20:27:20.094Z,7.90
2018-12-02T20:29:50.930Z,7.90
2018-12-02T20:32:21.177Z,7.90
2018-12-02T20:34:52.755Z,7.90
2018-12-02T20:37:22.729Z,7.90
2018-12-02T20:39:52.591Z,7.90
2018-12-02T20:42:22.320Z,7.90
2018-12-02T20:44:52.885Z,7.90
2018-12-02T20:47:21.611Z,7.90
2018-12-02T20:49:52.259Z,7.90
2018-12-02T20:52:22.344Z,8.00
2018-12-02T20:54:51.958Z,8.00
2018-12-02T20:57:21.691Z,8.00
2018-12-02T20:59:53.355Z,7.90
2018-12-02T21:02:22.809Z,7.90
2018-12-02T21:04:52.278Z,7.90
2018-12-02T21:07:21.713Z,7.80
2018-12-02T21:09:51.200Z,7.90
2018-12-02T21:12:20.664Z,7.90
2018-12-02T21:14:51.267Z,8.00
2018-12-02T21:17:21.247Z,8.00
2018-12-02T21:19:51.357Z,8.00
2018-12-02T21:22:20.943Z,8.10
2018-12-02T21:24:51.498Z,8.10
2018-12-02T21:27:21.747Z,8.20
2018-12-02T21:29:52.178Z,8.20
2018-12-02T21:32:22.648Z,8.40
2018-12-02T21:34:51.408Z,8.40
2018-12-02T21:37:21.875Z,8.30
2018-12-02T21:39:51.341Z,8.30
2018-12-02T21:42:21.744Z,8.30
2018-12-02T21:44:54.616Z,8.30
2018-12-02T21:47:24.168Z,8.40
2018-12-02T21:49:56.570Z,8.30
2018-12-02T21:52:30.270Z,8.20
2018-12-02T21:55:00.526Z,8.20
2018-12-02T21:57:30.064Z,8.20
2018-12-02T21:59:59.717Z,8.20
2018-12-02T22:02:29.551Z,8.20
2018-12-02T22:04:58.989Z,8.30
2018-12-02T22:07:28.424Z,8.40
2018-12-02T22:09:57.848Z,8.50
2018-12-02T22:12:27.816Z,8.60
2018-12-02T22:14:57.383Z,8.70
2018-12-02T22:17:26.833Z,8.70
2018-12-02T22:19:56.300Z,8.70
2018-12-02T22:22:25.783Z,8.70
2018-12-02T22:24:58.491Z,8.70
2018-12-02T22:27:28.665Z,8.60
2018-12-02T22:29:58.268Z,8.60
2018-12-02T22:32:28.276Z,8.50
2018-12-02T22:34:58.010Z,8.50
2018-12-02T22:37:27.473Z,8.50
2018-12-02T22:39:56.928Z,8.70
2018-12-02T22:42:27.393Z,8.80
2018-12-02T22:44:56.802Z,8.90
2018-12-02T22:47:26.867Z,8.90
2018-12-02T22:49:56.278Z,9.00
2018-12-02T22:52:25.749Z,9.00
2018-12-02T22:54:55.420Z,9.00
2018-12-02T22:57:24.813Z,9.00
2018-12-02T22:59:54.690Z,9.00
2018-12-02T23:02:28.215Z,9.10
2018-12-02T23:04:57.659Z,9.20
2018-12-02T23:07:27.128Z,9.20
2018-12-02T23:09:56.723Z,9.20
2018-12-02T23:12:26.295Z,9.30
2018-12-02T23:14:57.395Z,9.30
2018-12-02T23:17:26.859Z,9.30
2018-12-02T23:19:56.309Z,9.20
2018-12-02T23:22:25.734Z,9.20
2018-12-02T23:24:55.178Z,9.20
2018-12-02T23:27:25.887Z,9.20
2018-12-02T23:29:55.457Z,9.20
2018-12-02T23:32:24.924Z,9.10
2018-12-02T23:34:54.527Z,9.00
2018-12-02T23:37:24.684Z,9.00
2018-12-02T23:39:54.265Z,9.00
2018-12-02T23:42:23.698Z,9.00
2018-12-02T23:44:53.213Z,8.80
2018-12-02T23:47:22.747Z,8.80
2018-12-02T23:49:53.820Z,8.70
2018-12-02T23:52:23.299Z,8.60
2018-12-02T23:54:52.787Z,8.60
2018-12-02T23:57:22.222Z,8.50
2018-12-02T23:59:52.888Z,8.40
